Uehling, Nebraska
Current Conditions -  °F | °C
As of 12:54 PM on Thursday 30 Oct 2014 (Local Time) from KTQE Reporting Station
Clear Clear  
Wind Chill: 62°   Ceiling: Unl
Heat Index: 62°   Visibility: 10mi
Dew Point: 42°   Wind: 18mph
Humidity: 48%   Direction: 330°NNW
Pressure: 30.08"   Gusts: 29mph
Location:  41.73°N, 96.51°W
Report Text: KTQE 301754Z AUTO 33016G25KT 10SM CLR 17/06 A3008 RMK AO2 PK WND 34026/1741 SLP184 T01670056 10167 20000 51008
Loading
Personal Weather Stations






























Interactive Weather Map
Tropical Storm Tracking
New forecast layout! Learn more

10-Day Weather Forecast

Advertisements
Track Severe Weather on mobile